createdAt,value
2018-07-16T00:00:58.015Z,91.13
2018-07-16T00:02:07.432Z,91.04
2018-07-16T00:03:16.297Z,91.52
2018-07-16T00:04:25.158Z,91.9
2018-07-16T00:05:34.018Z,91.23
2018-07-16T00:06:42.880Z,91.42
2018-07-16T00:07:51.741Z,91.33
2018-07-16T00:09:00.609Z,91.33
2018-07-16T00:10:09.473Z,91.42
2018-07-16T00:11:18.479Z,91.9
2018-07-16T00:12:27.345Z,91.71
2018-07-16T00:13:36.210Z,91.13
2018-07-16T00:14:45.228Z,91.81
2018-07-16T00:15:53.932Z,91.81
2018-07-16T00:17:02.794Z,91.42
2018-07-16T00:18:11.664Z,91.13
2018-07-16T00:19:20.520Z,91.81
2018-07-16T00:20:29.383Z,91.52
2018-07-16T00:21:38.246Z,91.23
2018-07-16T00:22:47.207Z,91.52
2018-07-16T00:23:56.070Z,91.42
2018-07-16T00:25:05.208Z,91.61
2018-07-16T00:26:14.349Z,91.71
2018-07-16T00:27:23.211Z,92.33
2018-07-16T00:28:32.172Z,91.61
2018-07-16T00:29:41.032Z,91.09
2018-07-16T00:30:49.900Z,91.61
2018-07-16T00:31:58.778Z,91.38
2018-07-16T00:33:07.625Z,91.57
2018-07-16T00:34:16.914Z,91.86
2018-07-16T00:35:26.055Z,91.28
2018-07-16T00:36:34.916Z,92.24
2018-07-16T00:37:44.055Z,91.47
2018-07-16T00:38:52.915Z,91.09
2018-07-16T00:40:02.213Z,91.47
2018-07-16T00:41:11.078Z,91.19
2018-07-16T00:42:19.940Z,91.38
2018-07-16T00:43:28.803Z,91.47
2018-07-16T00:44:37.939Z,92.43
2018-07-16T00:45:47.151Z,90.8
2018-07-16T00:46:56.012Z,92.33
2018-07-16T00:48:05.424Z,91.28
2018-07-16T00:49:14.842Z,91.66
2018-07-16T00:50:23.705Z,91.19
2018-07-16T00:51:32.566Z,91.19
2018-07-16T00:52:41.429Z,91.19
2018-07-16T00:53:50.290Z,91.19
2018-07-16T00:54:59.424Z,91.19
2018-07-16T00:56:08.288Z,91.09
2018-07-16T00:57:17.293Z,91.09
2018-07-16T00:58:26.428Z,91.57
2018-07-16T00:59:35.287Z,90.8
2018-07-16T01:00:44.424Z,91.38
2018-07-16T01:01:53.284Z,91.38
2018-07-16T01:03:02.915Z,91.28
2018-07-16T01:04:11.996Z,90.9
2018-07-16T01:05:20.856Z,90.9
2018-07-16T01:06:29.995Z,91.14
2018-07-16T01:07:39.143Z,90.95
2018-07-16T01:08:48.103Z,90.95
2018-07-16T01:09:56.967Z,91.24
2018-07-16T01:11:05.824Z,91.05
2018-07-16T01:12:14.686Z,90.95
2018-07-16T01:13:23.545Z,90.75
2018-07-16T01:14:32.405Z,90.85
2018-07-16T01:15:41.266Z,90.75
2018-07-16T01:16:50.127Z,90.75
2018-07-16T01:17:58.993Z,90.66
2018-07-16T01:19:07.856Z,89.99
2018-07-16T01:20:16.817Z,90.85
2018-07-16T01:21:25.677Z,90.66
2018-07-16T01:22:34.538Z,91.24
2018-07-16T01:23:43.397Z,90.56
2018-07-16T01:24:52.260Z,90.56
2018-07-16T01:26:01.123Z,90.66
2018-07-16T01:27:10.259Z,90.28
2018-07-16T01:28:19.124Z,90.66
2018-07-16T01:29:27.988Z,89.79
2018-07-16T01:30:36.852Z,89.61
2018-07-16T01:31:45.987Z,89.7
2018-07-16T01:32:54.846Z,89.65
2018-07-16T01:34:03.707Z,89.85
2018-07-16T01:35:12.845Z,89.37
2018-07-16T01:36:21.706Z,89.08
2018-07-16T01:37:30.720Z,89.27
2018-07-16T01:38:39.582Z,88.89
2018-07-16T01:39:48.444Z,88.6
2018-07-16T01:40:57.302Z,89.18
2018-07-16T01:42:06.163Z,87.93
2018-07-16T01:43:15.181Z,88.02
2018-07-16T01:44:24.034Z,87.64
2018-07-16T01:45:32.894Z,87.64
2018-07-16T01:46:41.755Z,87.07
2018-07-16T01:47:50.899Z,87.07
2018-07-16T01:48:59.908Z,86.25
2018-07-16T01:50:08.768Z,86.54
2018-07-16T01:51:17.627Z,86.45
2018-07-16T01:52:26.490Z,86.4
2018-07-16T01:53:35.352Z,86.45
2018-07-16T01:54:44.593Z,86.25
2018-07-16T01:55:53.455Z,85.88
2018-07-16T01:57:02.321Z,85.49
2018-07-16T01:58:11.457Z,85.39
2018-07-16T01:59:20.317Z,85.97
2018-07-16T02:00:29.329Z,85.49
2018-07-16T02:01:38.201Z,85.68
2018-07-16T02:02:47.057Z,84.63
2018-07-16T02:03:55.919Z,85.21
2018-07-16T02:05:04.778Z,84.63
2018-07-16T02:06:13.639Z,84.44
2018-07-16T02:07:22.500Z,84.15
2018-07-16T02:08:31.372Z,83.95
2018-07-16T02:09:40.499Z,83.48
2018-07-16T02:10:49.362Z,84.05
2018-07-16T02:11:58.374Z,83.48
2018-07-16T02:13:07.237Z,84.05
2018-07-16T02:14:16.095Z,84.15
2018-07-16T02:15:24.959Z,83.53
2018-07-16T02:16:33.819Z,83.58
2018-07-16T02:17:43.031Z,83.19
2018-07-16T02:18:52.169Z,83.15
2018-07-16T02:20:01.030Z,82.29
2018-07-16T02:21:09.893Z,82
2018-07-16T02:22:19.311Z,82.09
2018-07-16T02:23:28.325Z,81.9
2018-07-16T02:24:37.185Z,81.52
2018-07-16T02:25:46.043Z,81.71
2018-07-16T02:26:54.905Z,81.9
2018-07-16T02:28:03.766Z,81.62
2018-07-16T02:29:12.977Z,81.52
2018-07-16T02:30:21.838Z,81.52
2018-07-16T02:31:31.260Z,81.13
2018-07-16T02:32:40.118Z,81.71
2018-07-16T02:33:49.257Z,81.81
2018-07-16T02:34:58.471Z,81.23
2018-07-16T02:36:07.625Z,81.23
2018-07-16T02:37:16.482Z,80.85
2018-07-16T02:38:25.622Z,81.33
2018-07-16T02:39:34.757Z,81.23
2018-07-16T02:40:44.055Z,80.85
2018-07-16T02:41:52.918Z,80.37
2018-07-16T02:43:01.778Z,79.7
2018-07-16T02:44:11.223Z,79.13
2018-07-16T02:45:20.335Z,79.7
2018-07-16T02:46:29.899Z,79.32
2018-07-16T02:47:38.762Z,79.37
2018-07-16T02:48:47.623Z,79.18
2018-07-16T02:49:57.037Z,78.64
2018-07-16T02:51:06.465Z,78.84
2018-07-16T02:52:15.883Z,78.8
2018-07-16T02:53:25.297Z,78.99
2018-07-16T02:54:34.434Z,78.89
2018-07-16T02:55:43.303Z,78.8
2018-07-16T02:56:52.995Z,78.99
2018-07-16T02:58:02.413Z,78.99
2018-07-16T02:59:11.555Z,78.51
2018-07-16T03:00:20.715Z,78.8
2018-07-16T03:01:29.855Z,78.22
2018-07-16T03:02:38.990Z,78.13
2018-07-16T03:03:48.280Z,77.84
2018-07-16T03:04:57.142Z,78.22
2018-07-16T03:06:06.015Z,78.03
2018-07-16T03:07:15.151Z,77.94
2018-07-16T03:08:24.013Z,78.61
2018-07-16T03:09:33.306Z,78.8
2018-07-16T03:10:42.453Z,78.32
2018-07-16T03:11:52.172Z,77.84
2018-07-16T03:13:01.879Z,77.84
2018-07-16T03:14:10.752Z,78.8
2018-07-16T03:15:20.728Z,78.51
2018-07-16T03:16:29.884Z,77.84
2018-07-16T03:17:39.026Z,77.46
2018-07-16T03:18:47.976Z,78.99
2018-07-16T03:19:57.420Z,78.32
2018-07-16T03:21:07.461Z,78.03
2018-07-16T03:22:16.598Z,78.13
2018-07-16T03:23:25.461Z,78.8
2018-07-16T03:24:34.322Z,78.8
2018-07-16T03:25:43.186Z,78.7
2018-07-16T03:26:52.758Z,78.99
2018-07-16T03:28:01.899Z,78.22
2018-07-16T03:29:11.316Z,78.89
2018-07-16T03:30:20.733Z,78.51
2018-07-16T03:31:30.439Z,78.22
2018-07-16T03:32:39.948Z,78.51
2018-07-16T03:33:48.808Z,78.99
2018-07-16T03:34:57.669Z,78.61
2018-07-16T03:36:07.365Z,79.28
2018-07-16T03:37:16.225Z,78.8
2018-07-16T03:38:25.184Z,77.94
2018-07-16T03:39:34.324Z,78.8
2018-07-16T03:40:43.187Z,78.8
2018-07-16T03:41:52.321Z,79.85
2018-07-16T03:43:01.181Z,78.89
2018-07-16T03:44:10.392Z,79.28
2018-07-16T03:45:19.254Z,78.32
2018-07-16T03:46:28.112Z,78.42
2018-07-16T03:47:36.971Z,77.84
2018-07-16T03:48:45.831Z,77.36
2018-07-16T03:49:54.690Z,76.98
2018-07-16T03:51:04.121Z,77.08
2018-07-16T03:52:12.984Z,78.22
2018-07-16T03:53:21.841Z,78.22
2018-07-16T03:54:31.140Z,77.94
2018-07-16T03:55:39.970Z,77.46
2018-07-16T03:56:48.807Z,78.22
2018-07-16T03:57:57.669Z,78.42
2018-07-16T03:59:06.547Z,77.75
2018-07-16T04:00:15.394Z,78.03
2018-07-16T04:01:24.259Z,77.55
2018-07-16T04:02:33.119Z,78.89
2018-07-16T04:03:41.980Z,77.84
2018-07-16T04:04:50.841Z,77.84
2018-07-16T04:05:59.705Z,77.36
2018-07-16T04:07:08.841Z,77.75
2018-07-16T04:08:17.700Z,78.8
2018-07-16T04:09:26.841Z,78.03
2018-07-16T04:10:35.701Z,78.22
2018-07-16T04:11:44.840Z,77.84
2018-07-16T04:12:54.054Z,77.88
2018-07-16T04:14:03.198Z,77.88
2018-07-16T04:15:12.057Z,77.94
2018-07-16T04:16:20.918Z,78.27
2018-07-16T04:17:29.780Z,78.84
2018-07-16T04:18:38.791Z,78.17
2018-07-16T04:19:47.652Z,78.45
2018-07-16T04:20:56.512Z,78.07
2018-07-16T04:22:05.377Z,78.84
2018-07-16T04:23:14.234Z,78.27
2018-07-16T04:24:23.094Z,77.97
2018-07-16T04:25:31.956Z,78.07
2018-07-16T04:26:40.814Z,78.55
2018-07-16T04:27:49.675Z,79.03
2018-07-16T04:28:58.535Z,78.36
2018-07-16T04:30:07.559Z,79.7
2018-07-16T04:31:16.694Z,77.88
2018-07-16T04:32:25.558Z,77.69
2018-07-16T04:33:34.414Z,78.45
2018-07-16T04:34:43.554Z,78.07
2018-07-16T04:35:52.766Z,77.97
2018-07-16T04:37:01.908Z,77.59
2018-07-16T04:38:11.340Z,77.31
2018-07-16T04:39:20.204Z,77.5
2018-07-16T04:40:29.616Z,78.17
2018-07-16T04:41:38.481Z,79.22
2018-07-16T04:42:47.338Z,78.27
2018-07-16T04:43:56.201Z,77.97
2018-07-16T04:45:05.063Z,78.07
2018-07-16T04:46:13.922Z,78.45
2018-07-16T04:47:22.784Z,78.07
2018-07-16T04:48:31.644Z,79.03
2018-07-16T04:49:40.504Z,78.07
2018-07-16T04:50:49.364Z,77.88
2018-07-16T04:51:58.229Z,77.88
2018-07-16T04:53:07.365Z,77.21
2018-07-16T04:54:16.225Z,77.88
2018-07-16T04:55:25.088Z,78.07
2018-07-16T04:56:34.243Z,77.88
2018-07-16T04:57:43.102Z,77.21
2018-07-16T04:58:51.962Z,78.02
2018-07-16T05:00:00.821Z,78.02
2018-07-16T05:01:09.688Z,77.53
2018-07-16T05:02:18.551Z,78.11
2018-07-16T05:03:27.749Z,77.97
2018-07-16T05:04:36.612Z,78.02
2018-07-16T05:05:45.474Z,77.92
2018-07-16T05:06:54.335Z,78.11
2018-07-16T05:08:03.195Z,78.88
2018-07-16T05:09:12.058Z,78.4
2018-07-16T05:10:20.919Z,79.16
2018-07-16T05:11:29.780Z,78.11
2018-07-16T05:12:38.642Z,77.53
2018-07-16T05:13:47.506Z,77.73
2018-07-16T05:14:56.372Z,78.11
2018-07-16T05:16:05.230Z,78.2
2018-07-16T05:17:14.092Z,77.92
2018-07-16T05:18:23.154Z,79.36
2018-07-16T05:19:31.818Z,77.92
2018-07-16T05:20:40.680Z,78.69
2018-07-16T05:21:49.543Z,78.59
2018-07-16T05:22:58.405Z,78.4
2018-07-16T05:24:07.309Z,79.55
2018-07-16T05:25:16.573Z,79.07
2018-07-16T05:26:25.432Z,78.4
2018-07-16T05:27:34.443Z,79.26
2018-07-16T05:28:43.304Z,78.59
2018-07-16T05:29:52.169Z,78.97
2018-07-16T05:31:01.030Z,78.4
2018-07-16T05:32:10.313Z,78.15
2018-07-16T05:33:19.026Z,78.92
2018-07-16T05:34:27.891Z,78.92
2018-07-16T05:35:36.754Z,79.49
2018-07-16T05:36:45.616Z,79.49
2018-07-16T05:37:54.480Z,78.92
2018-07-16T05:39:04.048Z,79.49
2018-07-16T05:40:12.911Z,80.16
2018-07-16T05:41:21.773Z,80.16
2018-07-16T05:42:30.908Z,79.88
2018-07-16T05:43:39.771Z,79.49
2018-07-16T05:44:48.633Z,79.49
2018-07-16T05:45:57.494Z,80.83
2018-07-16T05:47:06.356Z,80.16
2018-07-16T05:48:15.215Z,80.64
2018-07-16T05:49:24.077Z,80.55
2018-07-16T05:50:33.215Z,80.74
2018-07-16T05:51:42.077Z,80.07
2018-07-16T05:52:50.939Z,80.16
2018-07-16T05:53:59.804Z,80.45
2018-07-16T05:55:08.674Z,80.87
2018-07-16T05:56:17.970Z,80.2
2018-07-16T05:57:27.106Z,80.4
2018-07-16T05:58:36.251Z,80.49
2018-07-16T05:59:45.387Z,80.58
2018-07-16T06:00:54.522Z,80.49
2018-07-16T06:02:03.384Z,80.49
2018-07-16T06:03:12.243Z,80.87
2018-07-16T06:04:21.105Z,80.78
2018-07-16T06:05:29.967Z,80.78
2018-07-16T06:06:38.830Z,80.49
2018-07-16T06:07:48.041Z,80.58
2018-07-16T06:08:56.906Z,81.16
2018-07-16T06:10:06.044Z,80.58
2018-07-16T06:11:14.906Z,81.74
2018-07-16T06:12:23.770Z,81.2
2018-07-16T06:13:32.780Z,80.63
2018-07-16T06:14:41.645Z,81.1
2018-07-16T06:15:50.509Z,82.35
2018-07-16T06:16:59.652Z,81.49
2018-07-16T06:18:08.519Z,81.59
2018-07-16T06:19:17.572Z,81.78
2018-07-16T06:20:26.709Z,81.3
2018-07-16T06:21:35.576Z,81.68
2018-07-16T06:22:44.440Z,82.07
2018-07-16T06:23:53.640Z,81.97
2018-07-16T06:25:02.594Z,81.97
2018-07-16T06:26:11.453Z,82.26
2018-07-16T06:27:20.598Z,82.26
2018-07-16T06:28:29.462Z,82.16
2018-07-16T06:29:38.324Z,82.4
2018-07-16T06:30:47.536Z,82.68
2018-07-16T06:31:56.398Z,83.16
2018-07-16T06:33:05.534Z,82.68
2018-07-16T06:34:14.402Z,83.26
2018-07-16T06:35:23.540Z,83.26
2018-07-16T06:36:32.681Z,83.16
2018-07-16T06:37:41.819Z,83.26
2018-07-16T06:38:50.684Z,84.12
2018-07-16T06:39:59.700Z,83.93
2018-07-16T06:41:09.402Z,84.07
2018-07-16T06:42:18.134Z,84.26
2018-07-16T06:43:26.993Z,84.64
2018-07-16T06:44:35.856Z,84.45
2018-07-16T06:45:44.719Z,84.64
2018-07-16T06:46:53.582Z,84.55
2018-07-16T06:48:02.725Z,84.84
2018-07-16T06:49:11.596Z,84.64
2018-07-16T06:50:20.456Z,84.64
2018-07-16T06:51:29.319Z,84.55
2018-07-16T06:52:38.183Z,85.03
2018-07-16T06:53:47.398Z,84.84
2018-07-16T06:54:56.259Z,85.27
2018-07-16T06:56:05.423Z,85.36
2018-07-16T06:57:14.561Z,85.46
2018-07-16T06:58:23.428Z,85.07
2018-07-16T06:59:32.439Z,86.13
2018-07-16T07:00:41.307Z,85.46
2018-07-16T07:01:50.169Z,85.94
2018-07-16T07:02:59.310Z,85.84
2018-07-16T07:04:08.173Z,85.65
2018-07-16T07:05:17.315Z,86.13
2018-07-16T07:06:26.177Z,85.75
2018-07-16T07:07:35.042Z,86.04
2018-07-16T07:08:43.904Z,85.94
2018-07-16T07:09:52.802Z,85.65
2018-07-16T07:11:01.954Z,86.32
2018-07-16T07:12:11.367Z,86.32
2018-07-16T07:13:20.238Z,86.56
2018-07-16T07:14:29.098Z,86.56
2018-07-16T07:15:38.243Z,86.08
2018-07-16T07:16:47.497Z,86.46
2018-07-16T07:17:56.325Z,86.36
2018-07-16T07:19:05.471Z,86.65
2018-07-16T07:20:14.335Z,86.75
2018-07-16T07:21:23.199Z,86.46
2018-07-16T07:22:32.337Z,86.56
2018-07-16T07:23:41.201Z,86.46
2018-07-16T07:24:50.063Z,86.31
2018-07-16T07:25:58.929Z,86.56
2018-07-16T07:27:07.794Z,86.69
2018-07-16T07:28:16.807Z,86.65
2018-07-16T07:29:25.675Z,87.27
2018-07-16T07:30:34.538Z,86.41
2018-07-16T07:31:43.402Z,87.37
2018-07-16T07:32:52.266Z,87.08
2018-07-16T07:34:01.128Z,87.46
2018-07-16T07:35:10.038Z,87.37
2018-07-16T07:36:19.744Z,87.46
2018-07-16T07:37:29.162Z,87.46
2018-07-16T07:38:38.026Z,87.27
2018-07-16T07:39:47.240Z,87.37
2018-07-16T07:40:56.102Z,87.6
2018-07-16T07:42:04.967Z,87.41
2018-07-16T07:43:13.830Z,87.7
2018-07-16T07:44:22.692Z,87.41
2018-07-16T07:45:31.985Z,87.99
2018-07-16T07:46:40.848Z,87.51
2018-07-16T07:47:49.716Z,87.6
2018-07-16T07:48:58.578Z,87.32
2018-07-16T07:50:07.443Z,87.32
2018-07-16T07:51:16.581Z,87.26
2018-07-16T07:52:25.725Z,87.46
2018-07-16T07:53:34.591Z,87.84
2018-07-16T07:54:43.574Z,87.17
2018-07-16T07:55:52.857Z,86.59
2018-07-16T07:57:01.867Z,87.7
2018-07-16T07:58:11.284Z,87.94
2018-07-16T07:59:20.465Z,87.65
2018-07-16T08:00:29.327Z,87.02
2018-07-16T08:01:38.241Z,87.21
2018-07-16T08:02:47.103Z,87.21
2018-07-16T08:03:55.966Z,86.05
2018-07-16T08:05:04.835Z,85.67
2018-07-16T08:06:13.701Z,86.87
2018-07-16T08:07:22.852Z,87.16
2018-07-16T08:08:31.991Z,86.58
2018-07-16T08:09:40.861Z,85.91
2018-07-16T08:10:50.014Z,86.1
2018-07-16T08:11:58.879Z,86.19
2018-07-16T08:13:07.744Z,85.61
2018-07-16T08:14:16.989Z,85.46
2018-07-16T08:15:26.139Z,85.27
2018-07-16T08:16:35.002Z,84.89
2018-07-16T08:17:43.866Z,84.59
2018-07-16T08:18:52.730Z,84.41
2018-07-16T08:20:01.603Z,83.92
2018-07-16T08:21:10.922Z,84.01
2018-07-16T08:22:19.786Z,84.11
2018-07-16T08:23:28.940Z,83.83
2018-07-16T08:24:38.101Z,83.73
2018-07-16T08:25:47.396Z,83.25
2018-07-16T08:26:56.259Z,84.11
2018-07-16T08:28:05.199Z,84.31
2018-07-16T08:29:14.812Z,84.41
2018-07-16T08:30:23.962Z,84.5
2018-07-16T08:31:33.119Z,84.41
2018-07-16T08:32:42.265Z,84.21
2018-07-16T08:33:51.416Z,84.41
2018-07-16T08:35:00.282Z,85.08
2018-07-16T08:36:09.428Z,85.37
2018-07-16T08:37:18.392Z,85.27
2018-07-16T08:38:27.259Z,85.66
2018-07-16T08:39:36.422Z,86.14
2018-07-16T08:40:45.575Z,85.66
2018-07-16T08:41:54.441Z,84.21
2018-07-16T08:43:03.410Z,84.06
2018-07-16T08:44:12.271Z,84.25
2018-07-16T08:45:21.134Z,84.06
2018-07-16T08:46:29.997Z,83.29
2018-07-16T08:47:39.143Z,83.48
2018-07-16T08:48:48.288Z,83.09
2018-07-16T08:49:57.155Z,83.42
2018-07-16T08:51:06.023Z,83.23
2018-07-16T08:52:14.900Z,83.96
2018-07-16T08:53:24.046Z,84.83
2018-07-16T08:54:33.262Z,85.64
2018-07-16T08:55:42.681Z,84.93
2018-07-16T08:56:51.551Z,84.54
2018-07-16T08:58:00.693Z,85.6
2018-07-16T08:59:09.856Z,85.6
2018-07-16T09:00:19.189Z,85.12
2018-07-16T09:01:28.056Z,83.81
2018-07-16T09:02:36.921Z,81.98
2018-07-16T09:03:45.792Z,81.98
2018-07-16T09:04:54.658Z,82.46
2018-07-16T09:06:03.521Z,81.92
2018-07-16T09:07:12.414Z,81.49
2018-07-16T09:08:21.249Z,81.44
2018-07-16T09:09:30.120Z,79.89
2018-07-16T09:10:38.986Z,81.73
2018-07-16T09:11:48.002Z,82.98
2018-07-16T09:12:56.867Z,82.69
2018-07-16T09:14:06.012Z,82.69
2018-07-16T09:15:14.876Z,80.86
2018-07-16T09:16:23.744Z,81.53
2018-07-16T09:17:32.956Z,82.11
2018-07-16T09:18:42.102Z,81.73
2018-07-16T09:19:50.963Z,81.82
2018-07-16T09:21:00.113Z,80.76
2018-07-16T09:22:08.978Z,80.47
2018-07-16T09:23:17.993Z,80.9
2018-07-16T09:24:26.863Z,79.7
2018-07-16T09:25:35.777Z,80.66
2018-07-16T09:26:44.600Z,79.41
2018-07-16T09:27:53.467Z,79.74
2018-07-16T09:29:02.433Z,79.45
2018-07-16T09:30:11.301Z,79.06
2018-07-16T09:31:20.444Z,80.18
2018-07-16T09:32:29.588Z,79.89
2018-07-16T09:33:38.455Z,79.74
2018-07-16T09:34:47.417Z,78.58
2018-07-16T09:35:56.294Z,80.61
2018-07-16T09:37:05.714Z,78.54
2018-07-16T09:38:14.584Z,79.06
2018-07-16T09:39:23.725Z,80.41
2018-07-16T09:40:32.940Z,78.67
2018-07-16T09:41:41.805Z,79.39
2018-07-16T09:42:50.668Z,79.29
2018-07-16T09:43:59.535Z,79.97
2018-07-16T09:45:08.402Z,79.87
2018-07-16T09:46:17.620Z,79.39
2018-07-16T09:47:26.765Z,79.29
2018-07-16T09:48:35.632Z,79.58
2018-07-16T09:49:44.499Z,79.1
2018-07-16T09:50:53.367Z,80.01
2018-07-16T09:52:02.664Z,78.85
2018-07-16T09:53:11.810Z,78.56
2018-07-16T09:54:20.956Z,77.69
2018-07-16T09:55:30.096Z,77.4
2018-07-16T09:56:39.238Z,76.53
2018-07-16T09:57:48.532Z,75.31
2018-07-16T09:58:57.397Z,75.89
2018-07-16T10:00:06.267Z,75.89
2018-07-16T10:01:15.130Z,75.7
2018-07-16T10:02:23.994Z,75.31
2018-07-16T10:03:32.863Z,76.18
2018-07-16T10:04:42.010Z,76.08
2018-07-16T10:05:50.875Z,75.31
2018-07-16T10:06:59.742Z,74.73
2018-07-16T10:08:08.609Z,75.11
2018-07-16T10:09:17.852Z,75.21
2018-07-16T10:10:26.719Z,74.92
2018-07-16T10:11:35.589Z,75.5
2018-07-16T10:12:44.451Z,73.57
2018-07-16T10:13:53.318Z,72.83
2018-07-16T10:15:02.817Z,73.99
2018-07-16T10:16:11.683Z,74.38
2018-07-16T10:17:20.550Z,73.89
2018-07-16T10:18:29.416Z,73.89
2018-07-16T10:19:38.285Z,73.41
2018-07-16T10:20:47.436Z,74.28
2018-07-16T10:21:56.293Z,74.76
2018-07-16T10:23:05.434Z,73.6
2018-07-16T10:24:14.577Z,73.41
2018-07-16T10:25:23.443Z,73.89
2018-07-16T10:26:32.457Z,73.41
2018-07-16T10:27:41.322Z,73.21
2018-07-16T10:28:50.188Z,72.63
2018-07-16T10:29:59.056Z,72.92
2018-07-16T10:31:08.205Z,73.41
2018-07-16T10:32:17.216Z,73.79
2018-07-16T10:33:26.084Z,73.5
2018-07-16T10:34:34.950Z,73.41
2018-07-16T10:35:43.823Z,73.79
2018-07-16T10:36:52.687Z,73.21
2018-07-16T10:38:01.660Z,73.5
2018-07-16T10:39:10.527Z,73.02
2018-07-16T10:40:19.672Z,73.5
2018-07-16T10:41:28.817Z,72.92
2018-07-16T10:42:37.684Z,73.31
2018-07-16T10:43:46.700Z,73.89
2018-07-16T10:44:55.844Z,73.93
2018-07-16T10:46:04.712Z,73.35
2018-07-16T10:47:13.579Z,73.05
2018-07-16T10:48:22.444Z,73.25
2018-07-16T10:49:31.374Z,73.25
2018-07-16T10:50:40.178Z,71.99
2018-07-16T10:51:49.044Z,71.31
2018-07-16T10:52:57.914Z,71.34
2018-07-16T10:54:07.062Z,70.76
2018-07-16T10:55:16.241Z,70.76
2018-07-16T10:56:25.071Z,70.96
2018-07-16T10:57:34.211Z,71.54
2018-07-16T10:58:43.351Z,71.73
2018-07-16T10:59:52.217Z,71.58
2018-07-16T11:01:01.361Z,71.48
2018-07-16T11:02:10.230Z,70.51
2018-07-16T11:03:19.439Z,69.83
2018-07-16T11:04:28.584Z,68.18
2018-07-16T11:05:37.453Z,70.03
2018-07-16T11:06:46.320Z,70.96
2018-07-16T11:07:55.185Z,71.15
2018-07-16T11:09:04.053Z,70.21
2018-07-16T11:10:13.212Z,69.02
2018-07-16T11:11:22.081Z,69.44
2018-07-16T11:12:31.324Z,69.34
2018-07-16T11:13:40.466Z,69.93
2018-07-16T11:14:49.336Z,69.24
2018-07-16T11:15:58.794Z,69.24
2018-07-16T11:17:07.661Z,69.15
2018-07-16T11:18:16.629Z,69.83
2018-07-16T11:19:25.495Z,68.7
2018-07-16T11:20:34.662Z,69.28
2018-07-16T11:21:43.529Z,67.83
2018-07-16T11:22:52.396Z,66.86
2018-07-16T11:24:01.413Z,67.54
2018-07-16T11:25:10.281Z,68.02
2018-07-16T11:26:19.427Z,67.05
2018-07-16T11:27:28.293Z,67.54
2018-07-16T11:28:37.171Z,69.28
2018-07-16T11:29:46.032Z,67.83
2018-07-16T11:30:55.181Z,68.6
2018-07-16T11:32:04.051Z,69.38
2018-07-16T11:33:13.194Z,68.89
2018-07-16T11:34:22.060Z,67.86
2018-07-16T11:35:30.993Z,67.86
2018-07-16T11:36:39.799Z,67.76
2018-07-16T11:37:48.945Z,66.89
2018-07-16T11:38:57.809Z,67.21
2018-07-16T11:40:07.234Z,65.95
2018-07-16T11:41:16.207Z,64.88
2018-07-16T11:42:25.078Z,64.59
2018-07-16T11:43:33.945Z,64.14
2018-07-16T11:44:42.865Z,61.97
2018-07-16T11:45:51.731Z,62.35
2018-07-16T11:47:00.750Z,63.17
2018-07-16T11:48:09.901Z,64.43
2018-07-16T11:49:18.771Z,63.94
2018-07-16T11:50:28.199Z,63.07
2018-07-16T11:51:37.396Z,62.41
2018-07-16T11:52:46.815Z,62.23
2018-07-16T11:53:55.960Z,61.74
2018-07-16T11:55:04.826Z,61.83
2018-07-16T11:56:13.693Z,61.93
2018-07-16T11:57:22.561Z,61.15
2018-07-16T11:58:31.706Z,61.74
2018-07-16T11:59:40.581Z,60.86
2018-07-16T12:00:49.723Z,60.38
2018-07-16T12:01:58.640Z,59.23
2018-07-16T12:03:07.893Z,59.72
2018-07-16T12:04:16.811Z,60.02
2018-07-16T12:05:25.681Z,59.05
2018-07-16T12:06:34.551Z,57
2018-07-16T12:07:43.422Z,57.68
2018-07-16T12:08:52.291Z,57.87
2018-07-16T12:10:01.311Z,57.87
2018-07-16T12:11:10.459Z,57.51
2018-07-16T12:12:19.622Z,55.57
2018-07-16T12:13:28.969Z,55.79
2018-07-16T12:14:38.119Z,57.64
2018-07-16T12:15:47.141Z,55.99
2018-07-16T12:16:56.291Z,58.54
2018-07-16T12:18:05.165Z,57.35
2018-07-16T12:19:14.036Z,56.3
2018-07-16T12:20:22.953Z,56.3
2018-07-16T12:21:32.102Z,55.23
2018-07-16T12:22:41.250Z,55.36
2018-07-16T12:23:50.398Z,54.68
2018-07-16T12:24:59.276Z,53.41
2018-07-16T12:26:08.711Z,54.09
2018-07-16T12:27:17.872Z,53.41
2018-07-16T12:28:26.747Z,54.5
2018-07-16T12:29:35.901Z,55.77
2018-07-16T12:30:44.777Z,54.53
2018-07-16T12:31:53.655Z,52.39
2018-07-16T12:33:02.884Z,52.09
2018-07-16T12:34:12.036Z,52.58
2018-07-16T12:35:21.187Z,53.17
2018-07-16T12:36:30.063Z,53.07
2018-07-16T12:37:39.495Z,53.88
2018-07-16T12:38:48.518Z,53.78
2018-07-16T12:39:57.399Z,52.9
2018-07-16T12:41:06.551Z,53.61
2018-07-16T12:42:15.430Z,53.71
2018-07-16T12:43:24.309Z,52.34
2018-07-16T12:44:33.284Z,52.15
2018-07-16T12:45:42.164Z,53.52
2018-07-16T12:46:51.363Z,52.9
2018-07-16T12:48:00.946Z,52.87
2018-07-16T12:49:10.113Z,52.41
2018-07-16T12:50:19.314Z,51.43
2018-07-16T12:51:28.193Z,50.75
2018-07-16T12:52:37.069Z,52.02
2018-07-16T12:53:45.948Z,51.53
2018-07-16T12:54:54.824Z,51.82
2018-07-16T12:56:04.133Z,51.53
2018-07-16T12:57:13.373Z,52
2018-07-16T12:58:22.169Z,52.41
2018-07-16T12:59:31.049Z,51.17
2018-07-16T13:00:40.556Z,51.17
2018-07-16T13:01:49.713Z,52.05
2018-07-16T13:02:58.591Z,52.05
2018-07-16T13:04:07.470Z,50.2
2018-07-16T13:05:16.623Z,49.14
2018-07-16T13:06:25.500Z,48.75
2018-07-16T13:07:34.379Z,48.68
2018-07-16T13:08:43.260Z,49.26
2018-07-16T13:09:52.140Z,48.87
2018-07-16T13:11:01.297Z,48.77
2018-07-16T13:12:10.451Z,48.48
2018-07-16T13:13:19.683Z,49.38
2018-07-16T13:14:28.561Z,48.02
2018-07-16T13:15:37.442Z,47.63
2018-07-16T13:16:46.322Z,47.24
2018-07-16T13:17:55.202Z,47.75
2018-07-16T13:19:04.084Z,46.77
2018-07-16T13:20:12.964Z,46.28
2018-07-16T13:21:21.844Z,46.97
2018-07-16T13:22:30.724Z,47.16
2018-07-16T13:23:39.884Z,48.24
2018-07-16T13:24:48.767Z,47.36
2018-07-16T13:25:57.641Z,46.18
2018-07-16T13:27:06.524Z,45.91
2018-07-16T13:28:15.405Z,45.81
2018-07-16T13:29:24.561Z,44.73
2018-07-16T13:30:33.798Z,44.54
2018-07-16T13:31:42.674Z,44.05
2018-07-16T13:32:51.552Z,43.77
2018-07-16T13:34:00.434Z,42.9
2018-07-16T13:35:09.310Z,42.41
2018-07-16T13:36:18.340Z,44.17
2018-07-16T13:37:27.226Z,43.29
2018-07-16T13:38:36.107Z,43.29
2018-07-16T13:39:45.546Z,44.09
2018-07-16T13:40:54.709Z,45.07
2018-07-16T13:42:03.937Z,45.17
2018-07-16T13:43:13.113Z,44.78
2018-07-16T13:44:22.275Z,45.37
2018-07-16T13:45:31.150Z,44.8
2018-07-16T13:46:40.111Z,44.51
2018-07-16T13:47:49.068Z,44.31
2018-07-16T13:48:57.949Z,44.31
2018-07-16T13:50:07.110Z,44.13
2018-07-16T13:51:15.993Z,44.04
2018-07-16T13:52:25.154Z,43.55
2018-07-16T13:53:34.039Z,43.65
2018-07-16T13:54:43.196Z,42.57
2018-07-16T13:55:52.075Z,42.47
2018-07-16T13:57:01.062Z,42.08
2018-07-16T13:58:10.536Z,42.58
2018-07-16T13:59:19.418Z,41.68
2018-07-16T14:00:28.299Z,42.19
2018-07-16T14:01:37.229Z,40.23
2018-07-16T14:02:46.724Z,40.94
2018-07-16T14:03:55.609Z,40.35
2018-07-16T14:05:04.843Z,39.86
2018-07-16T14:06:14.003Z,39.17
2018-07-16T14:07:23.161Z,39
2018-07-16T14:08:32.049Z,39
2018-07-16T14:09:41.204Z,38.92
2018-07-16T14:10:50.091Z,39.09
2018-07-16T14:11:58.976Z,39.09
2018-07-16T14:13:07.857Z,40.27
2018-07-16T14:14:16.744Z,38.9
2018-07-16T14:15:25.622Z,38.4
2018-07-16T14:16:34.606Z,39.5
2018-07-16T14:17:43.763Z,39.03
2018-07-16T14:18:52.646Z,38.93
2018-07-16T14:20:01.531Z,38.44
2018-07-16T14:21:10.695Z,39.13
2018-07-16T14:22:19.578Z,38.34
2018-07-16T14:23:28.480Z,38.13
2018-07-16T14:24:37.684Z,38.5
2018-07-16T14:25:46.566Z,39.45
2018-07-16T14:26:55.725Z,39.84
2018-07-16T14:28:04.885Z,39.84
2018-07-16T14:29:14.050Z,39.82
2018-07-16T14:30:22.930Z,40.61
2018-07-16T14:31:31.807Z,40.82
2018-07-16T14:32:40.964Z,39.45
2018-07-16T14:33:49.944Z,39.64
2018-07-16T14:34:58.825Z,39.07
2018-07-16T14:36:07.985Z,38.4
2018-07-16T14:37:17.724Z,38.72
2018-07-16T14:38:26.883Z,38.11
2018-07-16T14:39:36.072Z,37.63
2018-07-16T14:40:45.353Z,38.13
2018-07-16T14:41:54.236Z,38.05
2018-07-16T14:43:03.116Z,38.64
2018-07-16T14:44:11.997Z,37.85
2018-07-16T14:45:20.982Z,38.34
2018-07-16T14:46:30.139Z,38.05
2018-07-16T14:47:39.071Z,37.85
2018-07-16T14:48:48.294Z,37.97
2018-07-16T14:49:57.456Z,38.93
2018-07-16T14:51:06.688Z,38.42
2018-07-16T14:52:15.850Z,37.65